Hartsfield Jackson Atlanta International Airport
KATL : rendu visible

Aérodrome :











RETROUVEZ-NOUS SUR...

 
LOGIN :

S'inscrire | Disclaimer

   EN    FR    IT 

 









Légende :    VFR   VFR Marginal   IFR   IFR Intensif   IFR Très Intensif
Visi : 
Plafond : 
>= 8 km
>= 3000ft
5 à 8 km
1000 à 3000 ft
1500m à 5 km
500 à 1000 ft
800 à 1500m
200 à 500 ft
< 800m
< 200 ft
Symboles :   Orages  Brouillard  Fortes neiges  Fortes précipitations  Vent > 20 kt






- Altitude de l'aérodrome : 1026 ft
- Code IATA : ATL


KATL - Hartsfield Jackson Atlanta International

DERNIER METAR :
  • 290252Z 20004KT 10SM BKN250 BKN300 23/16 A2998 RMK AO2 SLP143 T02330161 53007

METARs EXPIRÉS :
  • 290152Z 20005KT 10SM BKN250 BKN300 24/16 A2997 RMK AO2 SLP139 T02390161
  • 290052Z 20006KT 10SM FEW050 SCT200 BKN250 BKN300 25/16 A2995 RMK AO2 SLP135 T02500156

TAF KATL
Valide du 29 à 02h jusqu'au 30 à 06h UTC


290200Z 2902/3006 22007KT P6SM BKN250
FM290900 22008KT P6SM BKN008 BKN012
FM291400 25010G18KT P6SM VCSH BKN020
PROB30 2914/2917 4SM -TSRA BKN012CB
FM291800 29010G18KT P6SM SCT035 BKN080
FM292300 32008KT P6SM SCT050 BKN120



MET'MAP, la Météo Aéronautique d'un coup d'oeil ! - Copyright ORBIFLY Décembre 2007 - Disclaimer

ORBIFLY MET'MAP TEAM :

Programmation & Développement : Alexandra Zaïnal
Sur une idée originale de : Baudouin d'Aumeries
Assistance à la programmation : Marc-Olivier Méhu
Soutien technique & logistique : Manuel Goepfert

Contact : metmap@orbifly.com




SOURCES & CREDITS :

   NOAA       Earth
Advisory